sensor_id;sensor_type;location;lat;lon;timestamp;pressure;altitude;pressure_sealevel;temperature;humidity
14383;BME280;7275;50.328;8.720;2023-01-31T00:01:26;100526.22;;;11.11;46.75
14383;BME280;7275;50.328;8.720;2023-01-31T00:03:56;100528.91;;;11.09;47.20
14383;BME280;7275;50.328;8.720;2023-01-31T00:06:26;100528.94;;;11.08;46.65
14383;BME280;7275;50.328;8.720;2023-01-31T00:08:56;100526.38;;;11.05;47.07
14383;BME280;7275;50.328;8.720;2023-01-31T00:11:26;100528.09;;;11.06;46.80
14383;BME280;7275;50.328;8.720;2023-01-31T00:13:54;100522.91;;;11.01;47.08
14383;BME280;7275;50.328;8.720;2023-01-31T00:16:22;100521.25;;;10.99;47.19
14383;BME280;7275;50.328;8.720;2023-01-31T00:18:49;100516.91;;;10.96;47.05
14383;BME280;7275;50.328;8.720;2023-01-31T00:21:18;100519.59;;;10.93;47.09
14383;BME280;7275;50.328;8.720;2023-01-31T00:23:47;100527.63;;;10.90;47.11
14383;BME280;7275;50.328;8.720;2023-01-31T00:26:18;100522.47;;;10.86;47.12
14383;BME280;7275;50.328;8.720;2023-01-31T00:28:47;100518.97;;;10.84;47.09
14383;BME280;7275;50.328;8.720;2023-01-31T00:31:16;100510.28;;;10.79;46.98
14383;BME280;7275;50.328;8.720;2023-01-31T00:33:45;100517.38;;;10.77;47.05
14383;BME280;7275;50.328;8.720;2023-01-31T00:36:14;100510.38;;;10.76;46.96
14383;BME280;7275;50.328;8.720;2023-01-31T00:38:43;100511.28;;;10.75;47.42
14383;BME280;7275;50.328;8.720;2023-01-31T00:41:10;100519.25;;;10.73;47.41
14383;BME280;7275;50.328;8.720;2023-01-31T00:43:39;100521.91;;;10.73;47.42
14383;BME280;7275;50.328;8.720;2023-01-31T00:46:07;100519.25;;;10.73;47.17
14383;BME280;7275;50.328;8.720;2023-01-31T00:48:34;100513.13;;;10.71;47.10
14383;BME280;7275;50.328;8.720;2023-01-31T00:51:02;100519.41;;;10.67;47.28
14383;BME280;7275;50.328;8.720;2023-01-31T00:53:30;100523.91;;;10.64;47.36
14383;BME280;7275;50.328;8.720;2023-01-31T00:56:02;100527.50;;;10.61;47.27
14383;BME280;7275;50.328;8.720;2023-01-31T00:58:30;100524.06;;;10.56;47.42
14383;BME280;7275;50.328;8.720;2023-01-31T01:01:05;100522.41;;;10.52;47.51
14383;BME280;7275;50.328;8.720;2023-01-31T01:03:33;100526.13;;;10.45;47.44
14383;BME280;7275;50.328;8.720;2023-01-31T01:06:02;100530.53;;;10.44;47.07
14383;BME280;7275;50.328;8.720;2023-01-31T01:08:30;100528.84;;;10.42;47.47
14383;BME280;7275;50.328;8.720;2023-01-31T01:11:03;100529.75;;;10.39;47.48
14383;BME280;7275;50.328;8.720;2023-01-31T01:13:31;100534.25;;;10.36;47.17
14383;BME280;7275;50.328;8.720;2023-01-31T01:16:05;100528.19;;;10.31;47.49
14383;BME280;7275;50.328;8.720;2023-01-31T01:18:33;100551.97;;;10.31;47.55
14383;BME280;7275;50.328;8.720;2023-01-31T01:21:05;100550.25;;;10.30;47.28
14383;BME280;7275;50.328;8.720;2023-01-31T01:23:33;100550.28;;;10.28;47.56
14383;BME280;7275;50.328;8.720;2023-01-31T01:26:00;100552.97;;;10.27;47.38
14383;BME280;7275;50.328;8.720;2023-01-31T01:28:31;100543.38;;;10.23;47.58
14383;BME280;7275;50.328;8.720;2023-01-31T01:31:05;100551.34;;;10.21;47.99
14383;BME280;7275;50.328;8.720;2023-01-31T01:33:33;100547.81;;;10.21;47.88
14383;BME280;7275;50.328;8.720;2023-01-31T01:36:00;100543.44;;;10.20;47.49
14383;BME280;7275;50.328;8.720;2023-01-31T01:38:28;100540.84;;;10.17;47.74
14383;BME280;7275;50.328;8.720;2023-01-31T01:40:56;100545.31;;;10.15;47.55
14383;BME280;7275;50.328;8.720;2023-01-31T01:43:38;100546.28;;;10.11;47.78
14383;BME280;7275;50.328;8.720;2023-01-31T01:46:10;100551.56;;;10.09;47.67
14383;BME280;7275;50.328;8.720;2023-01-31T01:48:39;100554.22;;;10.11;47.84
14383;BME280;7275;50.328;8.720;2023-01-31T01:51:07;100561.25;;;10.10;48.16
14383;BME280;7275;50.328;8.720;2023-01-31T01:53:38;100560.34;;;10.10;48.13
14383;BME280;7275;50.328;8.720;2023-01-31T01:56:09;100557.69;;;10.10;47.99
14383;BME280;7275;50.328;8.720;2023-01-31T01:58:40;100556.03;;;10.07;48.02
14383;BME280;7275;50.328;8.720;2023-01-31T02:01:11;100552.53;;;10.05;47.82
14383;BME280;7275;50.328;8.720;2023-01-31T02:03:43;100545.53;;;10.03;47.98
14383;BME280;7275;50.328;8.720;2023-01-31T02:06:11;100542.97;;;10.00;47.74
14383;BME280;7275;50.328;8.720;2023-01-31T02:08:40;100549.22;;;9.96;48.13
14383;BME280;7275;50.328;8.720;2023-01-31T02:11:12;100548.47;;;9.91;48.15
14383;BME280;7275;50.328;8.720;2023-01-31T02:13:42;100544.09;;;9.88;48.13
14383;BME280;7275;50.328;8.720;2023-01-31T02:16:13;100543.28;;;9.85;48.16
14383;BME280;7275;50.328;8.720;2023-01-31T02:18:41;100541.59;;;9.81;48.24
14383;BME280;7275;50.328;8.720;2023-01-31T02:21:25;100552.19;;;9.79;48.39
14383;BME280;7275;50.328;8.720;2023-01-31T02:24:21;100546.97;;;9.78;48.57
14383;BME280;7275;50.328;8.720;2023-01-31T02:27:21;100547.00;;;9.75;48.57
14383;BME280;7275;50.328;8.720;2023-01-31T02:30:17;100553.16;;;9.75;48.76
14383;BME280;7275;50.328;8.720;2023-01-31T02:33:00;100547.00;;;9.76;48.74
14383;BME280;7275;50.328;8.720;2023-01-31T02:35:40;100552.28;;;9.76;48.61
14383;BME280;7275;50.328;8.720;2023-01-31T02:38:19;100555.81;;;9.75;48.39
14383;BME280;7275;50.328;8.720;2023-01-31T02:40:54;100558.44;;;9.75;48.74
14383;BME280;7275;50.328;8.720;2023-01-31T02:43:33;100561.03;;;9.78;48.43
14383;BME280;7275;50.328;8.720;2023-01-31T02:46:27;100553.97;;;9.79;48.45
14383;BME280;7275;50.328;8.720;2023-01-31T02:49:02;100553.13;;;9.78;48.49
14383;BME280;7275;50.328;8.720;2023-01-31T02:51:35;100560.97;;;9.81;48.50
14383;BME280;7275;50.328;8.720;2023-01-31T02:54:08;100560.91;;;9.84;48.54
14383;BME280;7275;50.328;8.720;2023-01-31T02:56:40;100560.03;;;9.84;48.39
14383;BME280;7275;50.328;8.720;2023-01-31T02:59:12;100553.00;;;9.83;48.47
14383;BME280;7275;50.328;8.720;2023-01-31T03:01:42;100551.28;;;9.82;48.48
14383;BME280;7275;50.328;8.720;2023-01-31T03:04:13;100578.59;;;9.79;48.10
14383;BME280;7275;50.328;8.720;2023-01-31T03:06:53;100581.28;;;9.78;48.12
14383;BME280;7275;50.328;8.720;2023-01-31T03:09:34;100591.91;;;9.75;48.17
14383;BME280;7275;50.328;8.720;2023-01-31T03:12:13;100584.06;;;9.70;48.38
14383;BME280;7275;50.328;8.720;2023-01-31T03:14:47;100585.84;;;9.68;48.08
14383;BME280;7275;50.328;8.720;2023-01-31T03:17:25;100587.69;;;9.64;48.52
14383;BME280;7275;50.328;8.720;2023-01-31T03:20:04;100593.91;;;9.62;48.60
14383;BME280;7275;50.328;8.720;2023-01-31T03:22:37;100588.63;;;9.62;48.30
14383;BME280;7275;50.328;8.720;2023-01-31T03:25:09;100593.91;;;9.63;48.52
14383;BME280;7275;50.328;8.720;2023-01-31T03:27:40;100601.75;;;9.66;48.78
14383;BME280;7275;50.328;8.720;2023-01-31T03:30:14;100605.22;;;9.68;48.28
14383;BME280;7275;50.328;8.720;2023-01-31T03:32:48;100607.78;;;9.73;48.71
14383;BME280;7275;50.328;8.720;2023-01-31T03:35:19;100610.38;;;9.76;48.33
14383;BME280;7275;50.328;8.720;2023-01-31T03:37:53;100610.38;;;9.76;48.33
14383;BME280;7275;50.328;8.720;2023-01-31T03:40:25;100617.34;;;9.79;48.43
14383;BME280;7275;50.328;8.720;2023-01-31T03:42:58;100607.63;;;9.81;48.48
14383;BME280;7275;50.328;8.720;2023-01-31T03:45:32;100604.09;;;9.82;48.86
14383;BME280;7275;50.328;8.720;2023-01-31T03:48:02;100610.22;;;9.84;48.65
14383;BME280;7275;50.328;8.720;2023-01-31T03:50:37;100607.47;;;9.88;48.39
14383;BME280;7275;50.328;8.720;2023-01-31T03:53:09;100607.44;;;9.90;48.48
14383;BME280;7275;50.328;8.720;2023-01-31T03:55:42;100605.63;;;9.92;48.38
14383;BME280;7275;50.328;8.720;2023-01-31T03:58:14;100606.56;;;9.89;48.19
14383;BME280;7275;50.328;8.720;2023-01-31T04:00:46;100602.25;;;9.85;48.51
14383;BME280;7275;50.328;8.720;2023-01-31T04:03:17;100611.94;;;9.85;48.51
14383;BME280;7275;50.328;8.720;2023-01-31T04:05:48;100612.78;;;9.87;48.34
14383;BME280;7275;50.328;8.720;2023-01-31T04:08:16;100617.13;;;9.89;48.36
14383;BME280;7275;50.328;8.720;2023-01-31T04:10:43;100614.47;;;9.89;48.31
14383;BME280;7275;50.328;8.720;2023-01-31T04:13:10;100620.66;;;9.90;48.39
14383;BME280;7275;50.328;8.720;2023-01-31T04:15:38;100619.81;;;9.88;48.04
14383;BME280;7275;50.328;8.720;2023-01-31T04:18:05;100619.00;;;9.84;47.92
14383;BME280;7275;50.328;8.720;2023-01-31T04:20:33;100610.28;;;9.79;48.04
14383;BME280;7275;50.328;8.720;2023-01-31T04:23:02;100602.50;;;9.73;47.90
14383;BME280;7275;50.328;8.720;2023-01-31T04:25:30;100606.09;;;9.69;48.24
14383;BME280;7275;50.328;8.720;2023-01-31T04:27:58;100603.50;;;9.66;48.38
14383;BME280;7275;50.328;8.720;2023-01-31T04:30:26;100592.19;;;9.61;48.35
14383;BME280;7275;50.328;8.720;2023-01-31T04:32:53;100587.03;;;9.55;48.31
14383;BME280;7275;50.328;8.720;2023-01-31T04:35:21;100588.94;;;9.47;48.22
14383;BME280;7275;50.328;8.720;2023-01-31T04:37:48;100583.75;;;9.41;48.08
14383;BME280;7275;50.328;8.720;2023-01-31T04:40:17;100575.97;;;9.33;48.23
14383;BME280;7275;50.328;8.720;2023-01-31T04:42:45;100581.38;;;9.27;48.15
14383;BME280;7275;50.328;8.720;2023-01-31T04:45:12;100573.50;;;9.26;48.56
14383;BME280;7275;50.328;8.720;2023-01-31T04:47:40;100570.84;;;9.26;48.42
14383;BME280;7275;50.328;8.720;2023-01-31T04:50:09;100564.75;;;9.24;48.25
14383;BME280;7275;50.328;8.720;2023-01-31T04:52:37;100573.59;;;9.18;48.52
14383;BME280;7275;50.328;8.720;2023-01-31T04:55:05;100563.16;;;9.12;48.41
14383;BME280;7275;50.328;8.720;2023-01-31T04:57:34;100566.00;;;9.03;48.12
14383;BME280;7275;50.328;8.720;2023-01-31T05:00:02;100569.66;;;8.95;48.06
14383;BME280;7275;50.328;8.720;2023-01-31T05:02:30;100562.75;;;8.86;48.14
14383;BME280;7275;50.328;8.720;2023-01-31T05:04:58;100554.16;;;8.75;48.19
14383;BME280;7275;50.328;8.720;2023-01-31T05:07:25;100564.81;;;8.66;48.21
14383;BME280;7275;50.328;8.720;2023-01-31T05:09:53;100573.78;;;8.56;48.38
14383;BME280;7275;50.328;8.720;2023-01-31T05:12:20;100569.50;;;8.47;48.34
14383;BME280;7275;50.328;8.720;2023-01-31T05:14:49;100572.31;;;8.38;48.51
14383;BME280;7275;50.328;8.720;2023-01-31T05:17:17;100566.28;;;8.29;48.53
14383;BME280;7275;50.328;8.720;2023-01-31T05:19:51;100574.28;;;8.18;48.72
14383;BME280;7275;50.328;8.720;2023-01-31T05:22:18;100566.53;;;8.09;48.85
14383;BME280;7275;50.328;8.720;2023-01-31T05:24:48;100580.69;;;8.00;48.93
14383;BME280;7275;50.328;8.720;2023-01-31T05:27:16;100573.78;;;7.92;48.72
14383;BME280;7275;50.328;8.720;2023-01-31T05:29:44;100569.50;;;7.83;48.73
14383;BME280;7275;50.328;8.720;2023-01-31T05:32:13;100570.44;;;7.76;48.93
14383;BME280;7275;50.328;8.720;2023-01-31T05:34:41;100569.63;;;7.70;49.18
14383;BME280;7275;50.328;8.720;2023-01-31T05:37:09;100567.09;;;7.65;49.17
14383;BME280;7275;50.328;8.720;2023-01-31T05:39:36;100567.13;;;7.61;49.17
14383;BME280;7275;50.328;8.720;2023-01-31T05:42:04;100566.28;;;7.57;49.18
14383;BME280;7275;50.328;8.720;2023-01-31T05:44:31;100569.00;;;7.50;49.16
14383;BME280;7275;50.328;8.720;2023-01-31T05:46:59;100562.94;;;7.45;49.17
14383;BME280;7275;50.328;8.720;2023-01-31T05:49:28;100562.97;;;7.39;49.23
14383;BME280;7275;50.328;8.720;2023-01-31T05:51:58;100555.16;;;7.34;49.40
14383;BME280;7275;50.328;8.720;2023-01-31T05:54:26;100563.06;;;7.31;49.57
14383;BME280;7275;50.328;8.720;2023-01-31T05:56:54;100556.13;;;7.24;49.46
14383;BME280;7275;50.328;8.720;2023-01-31T05:59:21;100563.19;;;7.20;49.68
14383;BME280;7275;50.328;8.720;2023-01-31T06:01:49;100556.22;;;7.15;49.64
14383;BME280;7275;50.328;8.720;2023-01-31T06:04:16;100555.38;;;7.13;49.73
14383;BME280;7275;50.328;8.720;2023-01-31T06:06:45;100561.53;;;7.10;49.81
14383;BME280;7275;50.328;8.720;2023-01-31T06:09:12;100565.06;;;7.08;49.92
14383;BME280;7275;50.328;8.720;2023-01-31T06:11:40;100558.06;;;7.07;49.86
14383;BME280;7275;50.328;8.720;2023-01-31T06:14:08;100557.22;;;7.05;50.00
14383;BME280;7275;50.328;8.720;2023-01-31T06:16:35;100557.19;;;7.03;50.07
14383;BME280;7275;50.328;8.720;2023-01-31T06:19:03;100549.34;;;7.02;50.07
14383;BME280;7275;50.328;8.720;2023-01-31T06:21:30;100548.47;;;7.01;50.14
14383;BME280;7275;50.328;8.720;2023-01-31T06:23:59;100557.19;;;7.03;50.18
14383;BME280;7275;50.328;8.720;2023-01-31T06:26:27;100554.59;;;7.02;50.16
14383;BME280;7275;50.328;8.720;2023-01-31T06:28:54;100557.19;;;7.03;50.28
14383;BME280;7275;50.328;8.720;2023-01-31T06:31:22;100567.72;;;7.05;50.31
14383;BME280;7275;50.328;8.720;2023-01-31T06:33:50;100571.19;;;7.08;50.36
14383;BME280;7275;50.328;8.720;2023-01-31T06:36:17;100565.88;;;7.11;50.22
14383;BME280;7275;50.328;8.720;2023-01-31T06:38:48;100561.50;;;7.15;50.57
14383;BME280;7275;50.328;8.720;2023-01-31T06:41:17;100564.06;;;7.18;50.37
14383;BME280;7275;50.328;8.720;2023-01-31T06:43:45;100560.53;;;7.22;50.36
14383;BME280;7275;50.328;8.720;2023-01-31T06:46:12;100563.13;;;7.26;50.39
14383;BME280;7275;50.328;8.720;2023-01-31T06:48:40;100560.47;;;7.30;50.42
14383;BME280;7275;50.328;8.720;2023-01-31T06:51:09;100566.59;;;7.30;50.27
14383;BME280;7275;50.328;8.720;2023-01-31T06:53:36;100567.44;;;7.31;50.22
14383;BME280;7275;50.328;8.720;2023-01-31T06:56:04;100572.72;;;7.31;50.13
14383;BME280;7275;50.328;8.720;2023-01-31T06:58:33;100577.13;;;7.30;50.29
14383;BME280;7275;50.328;8.720;2023-01-31T07:01:04;100580.59;;;7.32;50.13
14383;BME280;7275;50.328;8.720;2023-01-31T07:03:31;100582.34;;;7.33;50.30
14383;BME280;7275;50.328;8.720;2023-01-31T07:05:59;100577.06;;;7.35;50.22
14383;BME280;7275;50.328;8.720;2023-01-31T07:08:26;100577.03;;;7.38;50.17
14383;BME280;7275;50.328;8.720;2023-01-31T07:10:54;100574.34;;;7.44;50.29
14383;BME280;7275;50.328;8.720;2023-01-31T07:13:22;100577.78;;;7.47;50.32
14383;BME280;7275;50.328;8.720;2023-01-31T07:15:51;100570.78;;;7.48;50.24
14383;BME280;7275;50.328;8.720;2023-01-31T07:18:18;100575.16;;;7.50;50.33
14383;BME280;7275;50.328;8.720;2023-01-31T07:20:46;100580.38;;;7.52;50.30
14383;BME280;7275;50.328;8.720;2023-01-31T07:23:13;100573.34;;;7.54;50.25
14383;BME280;7275;50.328;8.720;2023-01-31T07:25:41;100579.47;;;7.56;50.35
14383;BME280;7275;50.328;8.720;2023-01-31T07:28:09;100582.06;;;7.57;50.41
14383;BME280;7275;50.328;8.720;2023-01-31T07:30:38;100581.16;;;7.60;50.42
14383;BME280;7275;50.328;8.720;2023-01-31T07:33:10;100579.38;;;7.63;50.41
14383;BME280;7275;50.328;8.720;2023-01-31T07:35:38;100574.06;;;7.66;50.50
14383;BME280;7275;50.328;8.720;2023-01-31T07:38:07;100571.41;;;7.71;50.50
14383;BME280;7275;50.328;8.720;2023-01-31T07:40:36;100568.72;;;7.75;50.41
14383;BME280;7275;50.328;8.720;2023-01-31T07:43:05;100573.94;;;7.80;50.57
14383;BME280;7275;50.328;8.720;2023-01-31T07:45:32;100575.63;;;7.84;50.45
14383;BME280;7275;50.328;8.720;2023-01-31T07:48:00;100577.34;;;7.88;50.44
14383;BME280;7275;50.328;8.720;2023-01-31T07:50:29;100579.03;;;7.92;50.45
14383;BME280;7275;50.328;8.720;2023-01-31T07:52:57;100564.09;;;7.94;50.40
14383;BME280;7275;50.328;8.720;2023-01-31T07:55:25;100559.72;;;7.94;50.56
14383;BME280;7275;50.328;8.720;2023-01-31T07:57:53;100577.22;;;7.95;50.49
14383;BME280;7275;50.328;8.720;2023-01-31T08:00:20;100562.31;;;7.96;50.46
14383;BME280;7275;50.328;8.720;2023-01-31T08:03:16;100570.19;;;7.97;50.42
14383;BME280;7275;50.328;8.720;2023-01-31T08:06:02;100574.53;;;8.00;50.74
14383;BME280;7275;50.328;8.720;2023-01-31T08:08:31;100578.84;;;8.05;50.63
14383;BME280;7275;50.328;8.720;2023-01-31T08:10:58;100581.38;;;8.12;50.81
14383;BME280;7275;50.328;8.720;2023-01-31T08:13:26;100568.16;;;8.19;50.73
14383;BME280;7275;50.328;8.720;2023-01-31T08:15:53;100567.22;;;8.23;50.51
14383;BME280;7275;50.328;8.720;2023-01-31T08:18:21;100569.78;;;8.29;50.57
14383;BME280;7275;50.328;8.720;2023-01-31T08:20:48;100577.59;;;8.35;50.41
14383;BME280;7275;50.328;8.720;2023-01-31T08:23:17;100575.78;;;8.39;50.40
14383;BME280;7275;50.328;8.720;2023-01-31T08:25:44;100566.94;;;8.44;50.50
14383;BME280;7275;50.328;8.720;2023-01-31T08:28:12;100573.09;;;8.45;50.36
14383;BME280;7275;50.328;8.720;2023-01-31T08:30:41;100571.28;;;8.45;50.43
14383;BME280;7275;50.328;8.720;2023-01-31T08:33:15;100574.81;;;8.46;50.38
14383;BME280;7275;50.328;8.720;2023-01-31T08:35:43;100567.78;;;8.46;50.35
14383;BME280;7275;50.328;8.720;2023-01-31T08:38:10;100564.25;;;8.49;50.33
14383;BME280;7275;50.328;8.720;2023-01-31T08:40:43;100576.47;;;8.51;50.50
14383;BME280;7275;50.328;8.720;2023-01-31T08:43:11;100597.47;;;8.57;50.58
14383;BME280;7275;50.328;8.720;2023-01-31T08:45:39;100600.03;;;8.63;50.44
14383;BME280;7275;50.328;8.720;2023-01-31T08:48:07;100593.78;;;8.69;50.24
14383;BME280;7275;50.328;8.720;2023-01-31T08:50:35;100590.19;;;8.73;50.32
14383;BME280;7275;50.328;8.720;2023-01-31T08:53:05;100590.13;;;8.77;50.35
14383;BME280;7275;50.328;8.720;2023-01-31T08:55:34;100583.91;;;8.81;50.51
14383;BME280;7275;50.328;8.720;2023-01-31T08:58:04;100582.97;;;8.85;50.36
14383;BME280;7275;50.328;8.720;2023-01-31T09:00:31;100585.56;;;8.89;50.63
14383;BME280;7275;50.328;8.720;2023-01-31T09:02:59;100589.00;;;8.94;50.49
14383;BME280;7275;50.328;8.720;2023-01-31T09:05:28;100590.69;;;8.98;50.23
14383;BME280;7275;50.328;8.720;2023-01-31T09:07:57;100597.63;;;9.03;50.60
14383;BME280;7275;50.328;8.720;2023-01-31T09:10:25;100595.81;;;9.07;50.66
14383;BME280;7275;50.328;8.720;2023-01-31T09:12:52;100594.91;;;9.09;50.25
14383;BME280;7275;50.328;8.720;2023-01-31T09:15:21;100593.97;;;9.10;50.26
14383;BME280;7275;50.328;8.720;2023-01-31T09:17:49;100587.81;;;9.10;50.21
14383;BME280;7275;50.328;8.720;2023-01-31T09:20:17;100582.63;;;9.07;49.96
14383;BME280;7275;50.328;8.720;2023-01-31T09:22:45;100568.59;;;9.05;50.30
14383;BME280;7275;50.328;8.720;2023-01-31T09:25:12;100573.88;;;9.05;50.35
14383;BME280;7275;50.328;8.720;2023-01-31T09:27:40;100565.97;;;9.05;50.18
14383;BME280;7275;50.328;8.720;2023-01-31T09:30:08;100580.88;;;9.06;50.26
14383;BME280;7275;50.328;8.720;2023-01-31T09:32:37;100579.91;;;9.10;50.50
14383;BME280;7275;50.328;8.720;2023-01-31T09:35:07;100591.31;;;9.12;50.18
14383;BME280;7275;50.328;8.720;2023-01-31T09:37:34;100578.13;;;9.12;50.02
14383;BME280;7275;50.328;8.720;2023-01-31T09:40:03;100586.91;;;9.12;50.43
14383;BME280;7275;50.328;8.720;2023-01-31T09:42:34;100560.53;;;9.12;50.19
14383;BME280;7275;50.328;8.720;2023-01-31T09:45:05;100548.22;;;9.13;50.00
14383;BME280;7275;50.328;8.720;2023-01-31T09:47:36;100533.28;;;9.12;50.28
14383;BME280;7275;50.328;8.720;2023-01-31T09:50:15;100538.59;;;9.10;50.26
14383;BME280;7275;50.328;8.720;2023-01-31T09:52:44;100542.97;;;9.11;50.12
14383;BME280;7275;50.328;8.720;2023-01-31T09:55:15;100548.25;;;9.11;50.32
14383;BME280;7275;50.328;8.720;2023-01-31T09:57:48;100540.22;;;9.16;50.46
14383;BME280;7275;50.328;8.720;2023-01-31T10:00:23;100534.88;;;9.20;50.08
14383;BME280;7275;50.328;8.720;2023-01-31T10:03:05;100541.00;;;9.22;50.50
14383;BME280;7275;50.328;8.720;2023-01-31T10:05:45;100554.13;;;9.27;50.05
14383;BME280;7275;50.328;8.720;2023-01-31T10:08:19;100561.91;;;9.33;50.18
14383;BME280;7275;50.328;8.720;2023-01-31T10:10:53;100568.09;;;9.32;49.82
14383;BME280;7275;50.328;8.720;2023-01-31T10:13:27;100555.78;;;9.31;49.79
14383;BME280;7275;50.328;8.720;2023-01-31T10:15:59;100547.03;;;9.29;49.92
14383;BME280;7275;50.328;8.720;2023-01-31T10:18:31;100540.03;;;9.26;50.13
14383;BME280;7275;50.328;8.720;2023-01-31T10:21:05;100538.28;;;9.27;50.26
14383;BME280;7275;50.328;8.720;2023-01-31T10:23:38;100525.16;;;9.24;49.91
14383;BME280;7275;50.328;8.720;2023-01-31T10:26:09;100512.94;;;9.20;50.23
14383;BME280;7275;50.328;8.720;2023-01-31T10:28:44;100507.66;;;9.20;50.08
14383;BME280;7275;50.328;8.720;2023-01-31T10:31:23;100513.84;;;9.17;50.07
14383;BME280;7275;50.328;8.720;2023-01-31T10:33:55;100514.75;;;9.16;50.23
14383;BME280;7275;50.328;8.720;2023-01-31T10:36:30;100525.31;;;9.15;50.09
14383;BME280;7275;50.328;8.720;2023-01-31T10:39:03;100517.41;;;9.15;50.33
14383;BME280;7275;50.328;8.720;2023-01-31T10:41:42;100534.13;;;9.15;50.62
14383;BME280;7275;50.328;8.720;2023-01-31T10:44:20;100519.16;;;9.14;50.26
14383;BME280;7275;50.328;8.720;2023-01-31T10:46:51;100523.56;;;9.15;50.37
14383;BME280;7275;50.328;8.720;2023-01-31T10:49:23;100508.59;;;9.16;50.26
14383;BME280;7275;50.328;8.720;2023-01-31T10:52:06;100495.34;;;9.19;50.23
14383;BME280;7275;50.328;8.720;2023-01-31T10:54:48;100491.84;;;9.20;50.53
14383;BME280;7275;50.328;8.720;2023-01-31T10:57:20;100484.72;;;9.23;50.70
14383;BME280;7275;50.328;8.720;2023-01-31T10:59:49;100490.00;;;9.23;50.63
14383;BME280;7275;50.328;8.720;2023-01-31T11:02:19;100485.59;;;9.24;50.53
14383;BME280;7275;50.328;8.720;2023-01-31T11:04:49;100469.78;;;9.24;50.32
14383;BME280;7275;50.328;8.720;2023-01-31T11:07:19;100474.09;;;9.26;50.59
14383;BME280;7275;50.328;8.720;2023-01-31T11:09:49;100470.53;;;9.29;50.45
14383;BME280;7275;50.328;8.720;2023-01-31T11:12:19;100460.81;;;9.32;50.70
14383;BME280;7275;50.328;8.720;2023-01-31T11:15:05;100448.41;;;9.36;50.52
14383;BME280;7275;50.328;8.720;2023-01-31T11:17:35;100456.25;;;9.40;50.44
14383;BME280;7275;50.328;8.720;2023-01-31T11:20:04;100453.44;;;9.48;50.44
14383;BME280;7275;50.328;8.720;2023-01-31T11:22:35;100447.97;;;9.57;50.96
14383;BME280;7275;50.328;8.720;2023-01-31T11:25:05;100439.91;;;9.63;50.62
14383;BME280;7275;50.328;8.720;2023-01-31T11:27:37;100440.66;;;9.68;50.70
14383;BME280;7275;50.328;8.720;2023-01-31T11:30:19;100421.22;;;9.72;50.57
14383;BME280;7275;50.328;8.720;2023-01-31T11:32:47;100416.75;;;9.76;50.64
14383;BME280;7275;50.328;8.720;2023-01-31T11:35:24;100427.22;;;9.80;50.23
14383;BME280;7275;50.328;8.720;2023-01-31T11:37:55;100407.75;;;9.84;50.34
14383;BME280;7275;50.328;8.720;2023-01-31T11:40:29;100401.41;;;9.91;50.39
14383;BME280;7275;50.328;8.720;2023-01-31T11:42:58;100406.59;;;9.96;50.39
14383;BME280;7275;50.328;8.720;2023-01-31T11:45:27;100400.34;;;10.00;50.13
14383;BME280;7275;50.328;8.720;2023-01-31T11:47:58;100395.00;;;10.01;50.18
14383;BME280;7275;50.328;8.720;2023-01-31T11:50:36;100391.44;;;10.04;50.49
14383;BME280;7275;50.328;8.720;2023-01-31T11:53:16;100395.72;;;10.08;50.24
14383;BME280;7275;50.328;8.720;2023-01-31T11:55:45;100395.69;;;10.11;50.37
14383;BME280;7275;50.328;8.720;2023-01-31T11:58:17;100389.50;;;10.13;50.24
14383;BME280;7275;50.328;8.720;2023-01-31T12:00:54;100393.81;;;10.16;50.21
14383;BME280;7275;50.328;8.720;2023-01-31T12:03:23;100382.34;;;10.17;50.31
14383;BME280;7275;50.328;8.720;2023-01-31T12:06:01;100352.38;;;10.18;50.10
14383;BME280;7275;50.328;8.720;2023-01-31T12:08:33;100350.53;;;10.21;50.08
14383;BME280;7275;50.328;8.720;2023-01-31T12:11:03;100336.34;;;10.25;50.19
14383;BME280;7275;50.328;8.720;2023-01-31T12:13:31;100345.91;;;10.29;50.38
14383;BME280;7275;50.328;8.720;2023-01-31T12:16:11;100337.59;;;10.43;50.34
14383;BME280;7275;50.328;8.720;2023-01-31T12:18:52;100327.25;;;10.68;50.50
14383;BME280;7275;50.328;8.720;2023-01-31T12:21:33;100330.97;;;10.91;50.22
14383;BME280;7275;50.328;8.720;2023-01-31T12:24:15;100323.38;;;11.10;50.24
14383;BME280;7275;50.328;8.720;2023-01-31T12:26:48;100315.91;;;11.24;50.33
14383;BME280;7275;50.328;8.720;2023-01-31T12:29:28;100311.00;;;11.40;50.03
14383;BME280;7275;50.328;8.720;2023-01-31T12:32:19;100306.34;;;11.48;49.72
14383;BME280;7275;50.328;8.720;2023-01-31T12:35:06;100291.13;;;11.54;49.31
14383;BME280;7275;50.328;8.720;2023-01-31T12:37:47;100292.75;;;11.58;49.25
14383;BME280;7275;50.328;8.720;2023-01-31T12:40:30;100294.38;;;11.62;49.33
14383;BME280;7275;50.328;8.720;2023-01-31T12:43:02;100290.84;;;11.63;49.22
14383;BME280;7275;50.328;8.720;2023-01-31T12:45:53;100279.88;;;11.75;49.47
14383;BME280;7275;50.328;8.720;2023-01-31T12:48:49;100283.75;;;11.91;49.51
14383;BME280;7275;50.328;8.720;2023-01-31T12:51:32;100262.25;;;12.00;49.03
14383;BME280;7275;50.328;8.720;2023-01-31T12:54:13;100263.81;;;12.06;48.80
14383;BME280;7275;50.328;8.720;2023-01-31T12:56:58;100264.69;;;12.07;48.51
14383;BME280;7275;50.328;8.720;2023-01-31T12:59:38;100260.34;;;12.04;48.37
14383;BME280;7275;50.328;8.720;2023-01-31T13:02:21;100261.97;;;12.08;48.69
14383;BME280;7275;50.328;8.720;2023-01-31T13:04:58;100254.84;;;12.10;48.57
14383;BME280;7275;50.328;8.720;2023-01-31T13:07:32;100238.13;;;12.08;48.49
14383;BME280;7275;50.328;8.720;2023-01-31T13:10:04;100239.13;;;12.06;48.31
14383;BME280;7275;50.328;8.720;2023-01-31T13:12:36;100226.06;;;11.99;47.76
14383;BME280;7275;50.328;8.720;2023-01-31T13:15:12;100228.16;;;11.90;48.11
14383;BME280;7275;50.328;8.720;2023-01-31T13:17:42;100240.81;;;11.82;47.98
14383;BME280;7275;50.328;8.720;2023-01-31T13:20:21;100237.50;;;11.75;48.23
14383;BME280;7275;50.328;8.720;2023-01-31T13:22:54;100241.25;;;11.68;48.14
14383;BME280;7275;50.328;8.720;2023-01-31T13:25:33;100238.78;;;11.62;48.27
14383;BME280;7275;50.328;8.720;2023-01-31T13:28:05;100258.41;;;11.57;48.52
14383;BME280;7275;50.328;8.720;2023-01-31T13:30:42;100236.53;;;11.50;48.33